createdAt,value
2022-10-22T00:00:17.466Z,30.73
2022-10-22T00:02:45.177Z,22.57
2022-10-22T00:05:12.506Z,94.73
2022-10-22T00:07:39.725Z,147.43
2022-10-22T00:10:08.293Z,258.53
2022-10-22T00:12:36.218Z,146.07
2022-10-22T00:15:05.806Z,84.10
2022-10-22T00:17:32.818Z,82.73
2022-10-22T00:19:59.765Z,34.33
2022-10-22T00:22:26.715Z,22.23
2022-10-22T00:24:53.638Z,34.40
2022-10-22T00:27:20.573Z,19.10
2022-10-22T00:29:47.527Z,33.23
2022-10-22T00:32:15.249Z,46.97
2022-10-22T00:34:42.350Z,36.10
2022-10-22T00:37:09.330Z,30.07
2022-10-22T00:39:36.253Z,18.50
2022-10-22T00:42:03.319Z,36.23
2022-10-22T00:45:05.263Z,19.83
2022-10-22T00:47:44.475Z,16.90
2022-10-22T00:50:29.666Z,20.13
2022-10-22T00:52:58.320Z,12.37
2022-10-22T00:55:28.169Z,12.47
2022-10-22T00:57:57.802Z,14.60
2022-10-22T01:00:25.732Z,18.37
2022-10-22T01:02:54.521Z,65.77
2022-10-22T01:05:22.564Z,140.60
2022-10-22T01:07:53.108Z,98.73
2022-10-22T01:10:34.847Z,87.37
2022-10-22T01:14:05.573Z,30.97
2022-10-22T01:16:44.396Z,55.77
2022-10-22T01:19:53.658Z,19.80
2022-10-22T01:22:48.083Z,477.90
2022-10-22T01:25:42.189Z,522.17
2022-10-22T01:28:53.233Z,148.40
2022-10-22T01:31:23.632Z,27.23
2022-10-22T01:33:53.866Z,20.07
2022-10-22T01:36:21.754Z,34.30
2022-10-22T01:38:51.400Z,102.63
2022-10-22T01:41:19.030Z,69.50
2022-10-22T01:43:45.997Z,285.03
2022-10-22T01:46:13.992Z,273.47
2022-10-22T01:49:38.353Z,168.50
2022-10-22T01:52:10.868Z,73.40
2022-10-22T01:54:59.365Z,36.63
2022-10-22T01:57:53.050Z,55.23
2022-10-22T02:00:20.762Z,13.77
2022-10-22T02:03:00.646Z,26.50
2022-10-22T02:05:43.782Z,24.40
2022-10-22T02:08:20.746Z,58.17
2022-10-22T02:10:49.907Z,18.57
2022-10-22T02:13:26.350Z,17.97
2022-10-22T02:15:54.831Z,47.13
2022-10-22T02:18:30.076Z,67.43
2022-10-22T02:20:59.360Z,19.70
2022-10-22T02:23:27.164Z,20.03
2022-10-22T02:26:11.766Z,67.10
2022-10-22T02:29:37.893Z,94.80
2022-10-22T02:32:09.539Z,56.83
2022-10-22T02:34:36.478Z,158.43
2022-10-22T02:37:04.852Z,87.63
2022-10-22T02:39:33.114Z,63.20
2022-10-22T02:42:02.786Z,66.33
2022-10-22T02:44:29.685Z,98.40
2022-10-22T02:46:57.193Z,50.50
2022-10-22T02:49:24.095Z,102.87
2022-10-22T02:51:51.042Z,219.37
2022-10-22T02:54:17.955Z,178.53
2022-10-22T02:56:44.902Z,81.00
2022-10-22T02:59:11.849Z,126.83
2022-10-22T03:01:38.851Z,24.13
2022-10-22T03:04:05.941Z,121.03
2022-10-22T03:06:32.928Z,79.17
2022-10-22T03:08:59.910Z,119.60
2022-10-22T03:11:26.929Z,152.83
2022-10-22T03:13:53.878Z,92.97
2022-10-22T03:16:20.809Z,57.73
2022-10-22T03:18:47.722Z,83.13
2022-10-22T03:21:57.141Z,78.07
2022-10-22T03:24:35.615Z,30.10
2022-10-22T03:27:02.901Z,23.83
2022-10-22T03:29:33.737Z,30.70
2022-10-22T03:32:00.711Z,21.53
2022-10-22T03:34:27.699Z,15.40
2022-10-22T03:36:57.122Z,136.10
2022-10-22T03:39:24.393Z,47.80
2022-10-22T03:41:53.143Z,129.00
2022-10-22T03:44:21.954Z,69.27
2022-10-22T03:46:49.031Z,140.57
2022-10-22T03:49:16.134Z,94.83
2022-10-22T03:51:43.277Z,63.70
2022-10-22T03:54:10.240Z,26.47
2022-10-22T03:56:37.246Z,37.53
2022-10-22T03:59:04.681Z,69.10
2022-10-22T04:01:32.174Z,42.63
2022-10-22T04:03:59.577Z,35.07
2022-10-22T04:06:26.655Z,24.07
2022-10-22T04:08:53.662Z,20.83
2022-10-22T04:11:20.629Z,70.77
2022-10-22T04:13:47.725Z,114.80
2022-10-22T04:16:19.872Z,86.50
2022-10-22T04:18:49.312Z,13.73
2022-10-22T04:21:19.554Z,31.13
2022-10-22T04:23:49.963Z,88.33
2022-10-22T04:26:18.361Z,89.27
2022-10-22T04:28:47.229Z,64.97
2022-10-22T04:31:20.225Z,84.20
2022-10-22T04:33:51.805Z,60.30
2022-10-22T04:36:19.433Z,41.83
2022-10-22T04:38:51.570Z,36.87
2022-10-22T04:41:26.824Z,40.57
2022-10-22T04:43:55.734Z,76.33
2022-10-22T04:46:25.470Z,37.10
2022-10-22T04:48:53.174Z,63.70
2022-10-22T04:51:23.661Z,37.33
2022-10-22T04:53:51.328Z,11.90
2022-10-22T04:56:24.810Z,23.40
2022-10-22T04:59:08.000Z,21.17
2022-10-22T05:01:43.903Z,18.37
2022-10-22T05:04:19.582Z,12.60
2022-10-22T05:06:46.904Z,21.60
2022-10-22T05:09:19.035Z,28.20
2022-10-22T05:11:51.051Z,17.20
2022-10-22T05:14:23.572Z,91.60
2022-10-22T05:16:51.814Z,122.33
2022-10-22T05:19:30.780Z,208.23
2022-10-22T05:22:01.411Z,165.17
2022-10-22T05:24:32.841Z,228.70
2022-10-22T05:27:00.879Z,104.67
2022-10-22T05:29:28.057Z,37.50
2022-10-22T05:31:55.468Z,42.90
2022-10-22T05:34:22.447Z,232.47
2022-10-22T05:36:49.456Z,86.70
2022-10-22T05:39:16.358Z,84.70
2022-10-22T05:41:43.255Z,77.83
2022-10-22T05:44:13.261Z,66.97
2022-10-22T05:46:41.040Z,59.83
2022-10-22T05:49:08.238Z,73.30
2022-10-22T05:51:37.490Z,94.07
2022-10-22T05:54:08.396Z,69.43
2022-10-22T05:56:36.692Z,400.40
2022-10-22T06:01:35.944Z,51.17
2022-10-22T06:04:08.157Z,64.17
2022-10-22T06:06:55.125Z,21.97
2022-10-22T06:09:35.295Z,37.73
2022-10-22T06:12:03.165Z,36.10
2022-10-22T06:14:32.570Z,74.30
2022-10-22T06:17:00.805Z,73.73
2022-10-22T06:19:28.090Z,79.17
2022-10-22T06:21:55.139Z,123.87
2022-10-22T06:24:22.073Z,279.03
2022-10-22T06:26:53.065Z,129.70
2022-10-22T06:29:20.464Z,29.17
2022-10-22T06:31:47.880Z,65.10
2022-10-22T06:34:18.655Z,17.13
2022-10-22T06:36:46.507Z,16.57
2022-10-22T06:39:17.496Z,58.10
2022-10-22T06:41:45.212Z,38.97
2022-10-22T06:44:17.456Z,26.33
2022-10-22T06:46:44.819Z,28.30
2022-10-22T06:49:15.950Z,21.30
2022-10-22T06:51:43.080Z,56.43
2022-10-22T06:54:10.693Z,61.30
2022-10-22T06:56:37.853Z,51.63
2022-10-22T06:59:04.861Z,38.80
2022-10-22T07:01:35.291Z,48.93
2022-10-22T07:04:03.668Z,45.30
2022-10-22T07:06:31.046Z,25.50
2022-10-22T07:11:50.516Z,49.87
2022-10-22T07:14:17.408Z,49.07
2022-10-22T07:17:00.892Z,31.30
2022-10-22T07:19:28.018Z,21.00
2022-10-22T07:21:55.045Z,35.70
2022-10-22T07:24:21.981Z,50.97
2022-10-22T07:26:49.288Z,43.60
2022-10-22T07:29:16.260Z,29.43
2022-10-22T07:31:44.023Z,45.40
2022-10-22T07:34:11.239Z,45.60
2022-10-22T07:36:38.202Z,39.57
2022-10-22T07:39:05.315Z,26.20
2022-10-22T07:41:32.566Z,47.53
2022-10-22T07:43:59.749Z,32.83
2022-10-22T07:46:27.627Z,39.10
2022-10-22T07:48:54.779Z,32.07
2022-10-22T07:51:22.370Z,38.77
2022-10-22T07:53:49.454Z,37.33
2022-10-22T07:56:17.445Z,38.83
2022-10-22T07:58:44.525Z,38.83
2022-10-22T08:01:11.781Z,31.00
2022-10-22T08:03:38.916Z,40.70
2022-10-22T08:06:06.454Z,37.53
2022-10-22T08:08:34.666Z,36.07
2022-10-22T08:11:02.144Z,33.90
2022-10-22T08:13:33.009Z,32.50
2022-10-22T08:16:02.383Z,28.17
2022-10-22T08:18:30.103Z,28.53
2022-10-22T08:20:57.511Z,31.80
2022-10-22T08:23:26.227Z,33.33
2022-10-22T08:25:57.365Z,32.60
2022-10-22T08:28:24.848Z,32.00
2022-10-22T08:30:51.781Z,38.73
2022-10-22T08:33:18.793Z,35.83
2022-10-22T08:35:53.035Z,36.87
2022-10-22T08:38:20.666Z,34.23
2022-10-22T08:41:00.732Z,37.30
2022-10-22T08:44:00.805Z,31.23
2022-10-22T08:47:25.050Z,40.27
2022-10-22T08:49:55.549Z,34.53
2022-10-22T08:52:22.578Z,32.27
2022-10-22T08:54:58.630Z,36.37
2022-10-22T08:58:29.510Z,32.70
2022-10-22T09:01:14.379Z,34.63
2022-10-22T09:04:17.091Z,31.57
2022-10-22T09:06:44.476Z,29.50
2022-10-22T09:09:18.606Z,30.77
2022-10-22T09:11:51.520Z,32.33
2022-10-22T09:14:25.803Z,25.53
2022-10-22T09:17:14.113Z,29.07
2022-10-22T09:20:12.030Z,28.40
2022-10-22T09:22:55.497Z,26.77
2022-10-22T09:25:30.688Z,28.27
2022-10-22T09:28:00.436Z,29.50
2022-10-22T09:30:34.793Z,29.83
2022-10-22T09:33:07.861Z,28.00
2022-10-22T09:36:03.451Z,28.27
2022-10-22T09:38:54.066Z,22.67
2022-10-22T09:41:29.737Z,21.37
2022-10-22T09:43:58.344Z,23.57
2022-10-22T09:46:29.971Z,24.83
2022-10-22T09:49:15.359Z,22.83
2022-10-22T09:51:58.703Z,20.90
2022-10-22T09:54:41.664Z,19.50
2022-10-22T09:57:22.619Z,20.77
2022-10-22T09:59:53.978Z,18.40
2022-10-22T10:02:43.971Z,18.50
2022-10-22T10:05:27.927Z,21.77
2022-10-22T10:07:54.999Z,20.88
2022-10-22T10:10:47.399Z,23.88
2022-10-22T10:14:02.715Z,22.65
2022-10-22T10:17:08.265Z,23.80
2022-10-22T10:20:01.374Z,20.90
2022-10-22T10:22:42.251Z,21.03
2022-10-22T10:25:39.638Z,21.38
2022-10-22T10:28:39.801Z,23.37
2022-10-22T10:32:15.005Z,19.23
2022-10-22T10:35:24.063Z,21.77
2022-10-22T10:38:31.349Z,21.50
2022-10-22T10:41:45.398Z,21.30
2022-10-22T10:44:40.059Z,16.05
2022-10-22T10:47:44.535Z,19.73
2022-10-22T10:50:41.246Z,18.53
2022-10-22T10:53:54.766Z,23.30
2022-10-22T10:56:41.703Z,15.88
2022-10-22T10:59:54.734Z,21.77
2022-10-22T11:03:22.646Z,16.48
2022-10-22T11:05:55.724Z,23.33
2022-10-22T11:08:42.206Z,18.30
2022-10-22T11:11:45.994Z,30.42
2022-10-22T11:14:46.646Z,19.88
2022-10-22T11:17:20.925Z,23.95
2022-10-22T11:20:17.766Z,23.88
2022-10-22T11:23:17.730Z,29.20
2022-10-22T11:25:50.142Z,24.77
2022-10-22T11:28:43.865Z,27.60
2022-10-22T11:31:18.917Z,28.33
2022-10-22T11:34:31.938Z,26.30
2022-10-22T11:36:59.845Z,24.23
2022-10-22T11:39:39.616Z,28.25
2022-10-22T11:43:02.250Z,27.40
2022-10-22T11:45:36.705Z,35.08
2022-10-22T11:48:19.465Z,31.85
2022-10-22T11:50:56.803Z,34.72
2022-10-22T11:53:38.900Z,27.55
2022-10-22T11:56:10.815Z,24.13
2022-10-22T11:58:39.410Z,24.15
2022-10-22T12:01:09.256Z,22.05
2022-10-22T12:04:16.617Z,25.23
2022-10-22T12:07:01.429Z,19.20
2022-10-22T12:09:33.616Z,20.20
2022-10-22T12:12:16.241Z,20.65
2022-10-22T12:14:58.169Z,22.98
2022-10-22T12:17:28.817Z,16.30
2022-10-22T12:20:14.077Z,15.20
2022-10-22T12:22:42.237Z,20.17
2022-10-22T12:25:24.758Z,17.85
2022-10-22T12:27:59.656Z,22.80
2022-10-22T12:30:36.621Z,13.52
2022-10-22T12:33:17.705Z,16.63
2022-10-22T12:35:47.799Z,13.63
2022-10-22T12:38:21.220Z,16.60
2022-10-22T12:40:51.741Z,14.02
2022-10-22T12:43:24.757Z,12.23
2022-10-22T12:45:52.818Z,18.80
2022-10-22T12:48:34.372Z,11.48
2022-10-22T12:51:04.972Z,11.13
2022-10-22T12:53:53.784Z,11.07
2022-10-22T12:56:35.097Z,18.13
2022-10-22T12:59:30.683Z,25.55
2022-10-22T13:01:57.885Z,18.42
2022-10-22T13:04:38.144Z,21.50
2022-10-22T13:07:18.235Z,9.75
2022-10-22T13:10:00.816Z,18.23
2022-10-22T13:12:37.123Z,16.05
2022-10-22T13:15:37.995Z,11.43
2022-10-22T13:18:25.918Z,10.30
2022-10-22T13:21:03.069Z,9.43
2022-10-22T13:23:34.955Z,7.43
2022-10-22T13:26:13.727Z,7.45
2022-10-22T13:28:41.332Z,7.60
2022-10-22T13:31:29.368Z,9.55
2022-10-22T13:34:08.435Z,15.35
2022-10-22T13:36:38.021Z,6.45
2022-10-22T13:39:08.855Z,9.82
2022-10-22T13:44:11.482Z,11.57
2022-10-22T13:46:42.626Z,10.35
2022-10-22T13:49:20.773Z,9.55
2022-10-22T13:51:47.909Z,6.55
2022-10-22T13:54:22.527Z,8.95
2022-10-22T13:56:49.811Z,8.27
2022-10-22T13:59:19.718Z,8.25
2022-10-22T14:01:49.885Z,8.40
2022-10-22T14:04:16.868Z,8.15
2022-10-22T14:06:44.281Z,8.07
2022-10-22T14:09:15.774Z,6.40
2022-10-22T14:11:43.100Z,6.95
2022-10-22T14:14:13.998Z,8.43
2022-10-22T14:16:41.152Z,7.53
2022-10-22T14:19:16.761Z,13.48
2022-10-22T14:21:43.808Z,5.63
2022-10-22T14:24:13.243Z,9.40
2022-10-22T14:26:43.225Z,10.10
2022-10-22T14:29:11.298Z,11.00
2022-10-22T14:31:42.497Z,13.30
2022-10-22T14:34:16.070Z,3.42
2022-10-22T14:36:46.316Z,6.07
2022-10-22T14:39:14.099Z,6.18
2022-10-22T14:41:42.374Z,8.63
2022-10-22T14:44:14.855Z,11.48
2022-10-22T14:46:43.920Z,6.30
2022-10-22T14:49:10.986Z,8.80
2022-10-22T14:51:38.120Z,6.65
2022-10-22T14:54:05.173Z,3.58
2022-10-22T14:56:32.157Z,5.75
2022-10-22T14:58:59.114Z,28.25
2022-10-22T15:01:26.040Z,10.50
2022-10-22T15:03:54.563Z,6.78
2022-10-22T15:06:21.540Z,14.00
2022-10-22T15:08:48.526Z,14.63
2022-10-22T15:11:15.496Z,13.55
2022-10-22T15:13:43.646Z,7.53
2022-10-22T15:16:14.748Z,8.73
2022-10-22T15:18:43.253Z,8.50
2022-10-22T15:21:21.800Z,7.80
2022-10-22T15:28:14.346Z,10.35
2022-10-22T15:30:41.328Z,14.75
2022-10-22T15:33:08.720Z,9.07
2022-10-22T15:35:35.751Z,11.45
2022-10-22T15:38:02.795Z,10.77
2022-10-22T15:40:29.726Z,19.27
2022-10-22T15:42:56.634Z,15.98
2022-10-22T15:45:24.964Z,9.95
2022-10-22T15:47:51.933Z,14.65
2022-10-22T15:50:18.876Z,11.48
2022-10-22T15:52:45.797Z,13.27
2022-10-22T15:57:45.078Z,10.70
2022-10-22T16:00:13.386Z,15.00
2022-10-22T16:02:40.366Z,11.25
2022-10-22T16:05:08.109Z,14.57
2022-10-22T16:07:35.086Z,17.03
2022-10-22T16:10:02.046Z,16.85
2022-10-22T16:12:29.286Z,14.30
2022-10-22T16:14:56.277Z,13.40
2022-10-22T16:17:24.475Z,9.93
2022-10-22T16:19:51.442Z,12.23
2022-10-22T16:22:18.421Z,13.43
2022-10-22T16:24:45.311Z,12.40
2022-10-22T16:27:12.270Z,13.47
2022-10-22T16:29:39.701Z,15.70
2022-10-22T16:32:07.457Z,12.50
2022-10-22T16:34:34.636Z,16.13
2022-10-22T16:37:02.505Z,14.27
2022-10-22T16:39:29.425Z,12.83
2022-10-22T16:41:56.387Z,12.57
2022-10-22T16:44:23.718Z,17.00
2022-10-22T16:46:50.650Z,13.13
2022-10-22T16:49:17.540Z,11.90
2022-10-22T16:51:44.453Z,22.50
2022-10-22T16:54:14.031Z,13.43
2022-10-22T16:56:41.083Z,9.87
2022-10-22T16:59:08.071Z,13.80
2022-10-22T17:01:40.403Z,9.33
2022-10-22T17:04:08.479Z,8.07
2022-10-22T17:06:35.759Z,12.47
2022-10-22T17:09:03.296Z,10.07
2022-10-22T17:11:34.694Z,16.20
2022-10-22T17:14:02.678Z,16.47
2022-10-22T17:16:30.052Z,13.60
2022-10-22T17:18:58.236Z,12.97
2022-10-22T17:21:25.702Z,10.57
2022-10-22T17:23:57.665Z,16.57
2022-10-22T17:26:26.624Z,12.23
2022-10-22T17:28:54.153Z,17.77
2022-10-22T17:31:26.999Z,14.30
2022-10-22T17:33:56.563Z,19.27
2022-10-22T17:36:25.068Z,17.90
2022-10-22T17:38:56.216Z,13.23
2022-10-22T17:41:32.808Z,12.13
2022-10-22T17:44:04.003Z,12.07
2022-10-22T17:46:32.508Z,12.03
2022-10-22T17:49:09.531Z,12.80
2022-10-22T17:51:36.491Z,11.20
2022-10-22T17:54:07.289Z,15.27
2022-10-22T17:56:38.769Z,17.53
2022-10-22T17:59:07.495Z,17.40
2022-10-22T18:01:39.318Z,14.33
2022-10-22T18:04:08.485Z,15.73
2022-10-22T18:06:36.070Z,13.43
2022-10-22T18:09:09.579Z,20.20
2022-10-22T18:11:38.775Z,12.63
2022-10-22T18:14:05.866Z,19.13
2022-10-22T18:16:33.142Z,26.87
2022-10-22T18:19:00.382Z,20.27
2022-10-22T18:21:30.218Z,15.63
2022-10-22T18:23:59.426Z,16.57
2022-10-22T18:26:27.181Z,15.33
2022-10-22T18:28:56.527Z,18.03
2022-10-22T18:31:28.372Z,16.57
2022-10-22T18:33:58.207Z,19.53
2022-10-22T18:36:27.590Z,19.57
2022-10-22T18:39:01.431Z,13.43
2022-10-22T18:41:30.944Z,20.70
2022-10-22T18:44:05.768Z,14.83
2022-10-22T18:46:38.200Z,18.53
2022-10-22T18:49:07.096Z,22.20
2022-10-22T18:51:35.246Z,18.00
2022-10-22T18:54:11.635Z,14.43
2022-10-22T18:56:48.994Z,16.63
2022-10-22T18:59:22.085Z,19.00
2022-10-22T19:01:53.739Z,12.77
2022-10-22T19:04:20.878Z,16.53
2022-10-22T19:06:47.825Z,11.20
2022-10-22T19:09:15.792Z,13.73
2022-10-22T19:11:45.213Z,18.67
2022-10-22T19:14:14.954Z,15.67
2022-10-22T19:16:42.046Z,18.33
2022-10-22T19:19:08.977Z,14.43
2022-10-22T19:21:37.869Z,19.80
2022-10-22T19:24:05.394Z,17.70
2022-10-22T19:26:32.532Z,15.30
2022-10-22T19:29:00.456Z,17.10
2022-10-22T19:31:32.158Z,15.43
2022-10-22T19:34:03.391Z,15.90
2022-10-22T19:36:32.578Z,15.77
2022-10-22T19:39:00.540Z,14.83
2022-10-22T19:41:30.266Z,14.83
2022-10-22T19:43:59.177Z,14.53
2022-10-22T19:46:29.033Z,12.93
2022-10-22T19:48:57.417Z,16.93
2022-10-22T19:51:33.492Z,20.80
2022-10-22T19:54:05.029Z,19.50
2022-10-22T19:56:34.005Z,21.93
2022-10-22T19:59:01.975Z,19.40
2022-10-22T20:01:31.267Z,16.07
2022-10-22T20:03:58.582Z,22.30
2022-10-22T20:06:25.656Z,21.97
2022-10-22T20:08:55.988Z,16.47
2022-10-22T20:11:28.384Z,17.03
2022-10-22T20:13:56.752Z,17.00
2022-10-22T20:16:30.650Z,18.47
2022-10-22T20:19:07.630Z,19.43
2022-10-22T20:21:35.292Z,13.43
2022-10-22T20:24:02.319Z,14.97
2022-10-22T20:26:31.529Z,16.13
2022-10-22T20:28:59.334Z,10.53
2022-10-22T20:31:29.507Z,10.50
2022-10-22T20:34:01.017Z,8.37
2022-10-22T20:36:31.849Z,11.90
2022-10-22T20:39:06.121Z,15.73
2022-10-22T20:41:35.041Z,10.73
2022-10-22T20:44:02.012Z,12.40
2022-10-22T20:46:32.163Z,9.73
2022-10-22T20:49:08.741Z,12.17
2022-10-22T20:51:37.220Z,12.30
2022-10-22T20:54:07.526Z,8.23
2022-10-22T20:56:38.886Z,10.33
2022-10-22T20:59:08.337Z,14.73
2022-10-22T21:01:50.336Z,10.73
2022-10-22T21:04:20.362Z,9.90
2022-10-22T21:06:49.793Z,6.10
2022-10-22T21:09:16.880Z,12.37
2022-10-22T21:11:44.365Z,10.03
2022-10-22T21:14:14.977Z,7.93
2022-10-22T21:16:49.973Z,9.47
2022-10-22T21:19:19.422Z,9.97
2022-10-22T21:21:46.342Z,10.27
2022-10-22T21:24:13.289Z,6.10
2022-10-22T21:26:42.698Z,7.70
2022-10-22T21:29:12.190Z,10.10
2022-10-22T21:31:40.270Z,8.23
2022-10-22T21:34:07.456Z,6.83
2022-10-22T21:36:34.453Z,9.20
2022-10-22T21:39:02.699Z,5.93
2022-10-22T21:41:29.655Z,7.97
2022-10-22T21:43:56.635Z,8.27
2022-10-22T21:46:28.001Z,7.03
2022-10-22T21:49:01.951Z,7.93
2022-10-22T21:51:32.951Z,7.50
2022-10-22T21:54:00.355Z,8.00
2022-10-22T21:56:34.947Z,6.60
2022-10-22T21:59:03.903Z,5.50
2022-10-22T22:01:31.277Z,8.27
2022-10-22T22:03:58.888Z,5.87
2022-10-22T22:06:30.710Z,6.80
2022-10-22T22:09:00.312Z,9.27
2022-10-22T22:11:28.990Z,5.60
2022-10-22T22:13:58.319Z,11.03
2022-10-22T22:16:31.486Z,10.20
2022-10-22T22:19:06.594Z,6.37
2022-10-22T22:21:39.160Z,11.37
2022-10-22T22:24:07.756Z,8.17
2022-10-22T22:26:34.791Z,12.83
2022-10-22T22:29:01.982Z,7.70
2022-10-22T22:31:34.093Z,6.97
2022-10-22T22:34:13.213Z,10.83
2022-10-22T22:36:48.264Z,7.63
2022-10-22T22:39:25.328Z,10.70
2022-10-22T22:41:52.353Z,10.53
2022-10-22T22:44:19.374Z,8.23
2022-10-22T22:46:46.421Z,10.73
2022-10-22T22:49:14.137Z,9.93
2022-10-22T22:51:41.539Z,6.10
2022-10-22T22:54:09.849Z,13.30
2022-10-22T22:56:37.395Z,16.90
2022-10-22T22:59:05.808Z,13.73
2022-10-22T23:01:39.018Z,14.77
2022-10-22T23:04:18.998Z,19.93
2022-10-22T23:06:46.634Z,16.43
2022-10-22T23:09:16.489Z,16.97
2022-10-22T23:11:45.969Z,17.07
2022-10-22T23:14:16.507Z,12.93
2022-10-22T23:16:48.643Z,20.30
2022-10-22T23:19:20.049Z,23.27
2022-10-22T23:21:54.568Z,16.67
2022-10-22T23:24:27.704Z,22.30
2022-10-22T23:26:59.651Z,18.23
2022-10-22T23:29:30.698Z,20.10
2022-10-22T23:32:01.966Z,18.57
2022-10-22T23:34:31.360Z,16.87
2022-10-22T23:36:59.899Z,18.97
2022-10-22T23:39:29.500Z,18.73
2022-10-22T23:41:57.531Z,17.80
2022-10-22T23:44:25.765Z,13.93
2022-10-22T23:46:52.712Z,16.20
2022-10-22T23:49:19.656Z,19.60
2022-10-22T23:51:46.736Z,19.20
2022-10-22T23:54:18.294Z,20.13
2022-10-22T23:56:45.605Z,20.17
